sensor_id;sensor_type;location;lat;lon;timestamp;P1;durP1;ratioP1;P2;durP2;ratioP2
65145;SDS011;51730;56.950;24.126;2022-11-15T00:00:56;6.70;;;3.58;;
65145;SDS011;51730;56.950;24.126;2022-11-15T00:03:25;6.22;;;3.17;;
65145;SDS011;51730;56.950;24.126;2022-11-15T00:05:53;7.07;;;3.83;;
65145;SDS011;51730;56.950;24.126;2022-11-15T00:08:20;7.70;;;4.53;;
65145;SDS011;51730;56.950;24.126;2022-11-15T00:10:54;6.50;;;3.78;;
65145;SDS011;51730;56.950;24.126;2022-11-15T00:13:21;7.15;;;4.05;;
65145;SDS011;51730;56.950;24.126;2022-11-15T00:15:48;7.70;;;4.43;;
65145;SDS011;51730;56.950;24.126;2022-11-15T00:18:15;7.65;;;4.35;;
65145;SDS011;51730;56.950;24.126;2022-11-15T00:20:43;10.48;;;4.70;;
65145;SDS011;51730;56.950;24.126;2022-11-15T00:23:10;8.13;;;4.80;;
65145;SDS011;51730;56.950;24.126;2022-11-15T00:25:37;9.27;;;5.10;;
65145;SDS011;51730;56.950;24.126;2022-11-15T00:28:04;10.15;;;4.90;;
65145;SDS011;51730;56.950;24.126;2022-11-15T00:30:31;7.88;;;4.43;;
65145;SDS011;51730;56.950;24.126;2022-11-15T00:33:02;7.13;;;4.38;;
65145;SDS011;51730;56.950;24.126;2022-11-15T00:35:33;10.07;;;4.53;;
65145;SDS011;51730;56.950;24.126;2022-11-15T00:38:00;8.43;;;4.22;;
65145;SDS011;51730;56.950;24.126;2022-11-15T00:40:28;7.93;;;4.45;;
65145;SDS011;51730;56.950;24.126;2022-11-15T00:42:55;10.23;;;5.38;;
65145;SDS011;51730;56.950;24.126;2022-11-15T00:45:22;12.00;;;5.18;;
65145;SDS011;51730;56.950;24.126;2022-11-15T00:47:49;10.48;;;5.40;;
65145;SDS011;51730;56.950;24.126;2022-11-15T00:50:17;13.98;;;6.22;;
65145;SDS011;51730;56.950;24.126;2022-11-15T00:52:44;13.52;;;6.35;;
65145;SDS011;51730;56.950;24.126;2022-11-15T00:55:15;12.15;;;5.90;;
65145;SDS011;51730;56.950;24.126;2022-11-15T01:00:11;9.65;;;5.38;;
65145;SDS011;51730;56.950;24.126;2022-11-15T01:02:38;10.38;;;5.50;;
65145;SDS011;51730;56.950;24.126;2022-11-15T01:05:05;10.63;;;5.32;;
65145;SDS011;51730;56.950;24.126;2022-11-15T01:07:33;12.23;;;6.18;;
65145;SDS011;51730;56.950;24.126;2022-11-15T01:10:00;13.10;;;5.93;;
65145;SDS011;51730;56.950;24.126;2022-11-15T01:12:27;11.57;;;5.93;;
65145;SDS011;51730;56.950;24.126;2022-11-15T01:14:54;10.32;;;5.57;;
65145;SDS011;51730;56.950;24.126;2022-11-15T01:17:20;11.93;;;5.93;;
65145;SDS011;51730;56.950;24.126;2022-11-15T01:19:47;12.77;;;6.00;;
65145;SDS011;51730;56.950;24.126;2022-11-15T01:22:14;11.30;;;5.90;;
65145;SDS011;51730;56.950;24.126;2022-11-15T01:24:41;10.57;;;5.28;;
65145;SDS011;51730;56.950;24.126;2022-11-15T01:27:08;14.20;;;6.45;;
65145;SDS011;51730;56.950;24.126;2022-11-15T01:29:35;9.32;;;5.63;;
65145;SDS011;51730;56.950;24.126;2022-11-15T01:32:02;10.80;;;5.47;;
65145;SDS011;51730;56.950;24.126;2022-11-15T01:34:29;9.43;;;5.40;;
65145;SDS011;51730;56.950;24.126;2022-11-15T01:36:56;10.38;;;5.78;;
65145;SDS011;51730;56.950;24.126;2022-11-15T01:39:23;9.55;;;5.90;;
65145;SDS011;51730;56.950;24.126;2022-11-15T01:41:50;11.15;;;5.53;;
65145;SDS011;51730;56.950;24.126;2022-11-15T01:50:02;11.05;;;5.78;;
65145;SDS011;51730;56.950;24.126;2022-11-15T01:52:36;14.15;;;7.45;;
65145;SDS011;51730;56.950;24.126;2022-11-15T01:55:16;13.70;;;6.20;;
65145;SDS011;51730;56.950;24.126;2022-11-15T02:00:16;10.95;;;5.40;;
65145;SDS011;51730;56.950;24.126;2022-11-15T02:02:43;10.98;;;6.32;;
65145;SDS011;51730;56.950;24.126;2022-11-15T02:05:10;10.82;;;5.32;;
65145;SDS011;51730;56.950;24.126;2022-11-15T02:07:37;11.02;;;5.97;;
65145;SDS011;51730;56.950;24.126;2022-11-15T02:10:12;11.30;;;6.03;;
65145;SDS011;51730;56.950;24.126;2022-11-15T02:12:41;11.07;;;5.93;;
65145;SDS011;51730;56.950;24.126;2022-11-15T02:15:08;11.77;;;5.90;;
65145;SDS011;51730;56.950;24.126;2022-11-15T02:31:22;13.38;;;6.50;;
65145;SDS011;51730;56.950;24.126;2022-11-15T02:36:49;11.18;;;5.90;;
65145;SDS011;51730;56.950;24.126;2022-11-15T02:39:23;13.07;;;6.38;;
65145;SDS011;51730;56.950;24.126;2022-11-15T02:41:53;12.98;;;7.30;;
65145;SDS011;51730;56.950;24.126;2022-11-15T02:44:30;15.70;;;7.07;;
65145;SDS011;51730;56.950;24.126;2022-11-15T02:47:06;14.77;;;6.57;;
65145;SDS011;51730;56.950;24.126;2022-11-15T02:49:41;13.27;;;6.35;;
65145;SDS011;51730;56.950;24.126;2022-11-15T02:52:15;13.68;;;5.85;;
65145;SDS011;51730;56.950;24.126;2022-11-15T02:54:43;13.15;;;7.38;;
65145;SDS011;51730;56.950;24.126;2022-11-15T03:00:17;15.90;;;7.28;;
65145;SDS011;51730;56.950;24.126;2022-11-15T03:02:50;17.48;;;7.55;;
65145;SDS011;51730;56.950;24.126;2022-11-15T03:05:40;16.48;;;7.68;;
65145;SDS011;51730;56.950;24.126;2022-11-15T03:11:29;17.30;;;8.05;;
65145;SDS011;51730;56.950;24.126;2022-11-15T03:14:14;17.58;;;8.07;;
65145;SDS011;51730;56.950;24.126;2022-11-15T03:16:58;16.17;;;7.93;;
65145;SDS011;51730;56.950;24.126;2022-11-15T03:22:08;21.17;;;8.32;;
65145;SDS011;51730;56.950;24.126;2022-11-15T03:24:38;23.30;;;8.80;;
65145;SDS011;51730;56.950;24.126;2022-11-15T03:27:05;21.25;;;8.65;;
65145;SDS011;51730;56.950;24.126;2022-11-15T03:29:39;18.23;;;8.45;;
65145;SDS011;51730;56.950;24.126;2022-11-15T03:32:18;19.83;;;9.07;;
65145;SDS011;51730;56.950;24.126;2022-11-15T03:37:27;18.60;;;8.95;;
65145;SDS011;51730;56.950;24.126;2022-11-15T03:40:16;26.73;;;9.88;;
65145;SDS011;51730;56.950;24.126;2022-11-15T03:45:41;23.30;;;10.18;;
65145;SDS011;51730;56.950;24.126;2022-11-15T03:48:17;22.35;;;10.32;;
65145;SDS011;51730;56.950;24.126;2022-11-15T03:50:49;22.63;;;9.57;;
65145;SDS011;51730;56.950;24.126;2022-11-15T03:53:16;21.75;;;9.70;;
65145;SDS011;51730;56.950;24.126;2022-11-15T03:55:43;24.02;;;10.27;;
65145;SDS011;51730;56.950;24.126;2022-11-15T03:58:10;21.33;;;9.80;;
65145;SDS011;51730;56.950;24.126;2022-11-15T04:00:37;23.65;;;10.73;;
65145;SDS011;51730;56.950;24.126;2022-11-15T04:03:03;23.35;;;10.27;;
65145;SDS011;51730;56.950;24.126;2022-11-15T04:05:30;21.90;;;9.75;;
65145;SDS011;51730;56.950;24.126;2022-11-15T04:07:57;25.40;;;10.63;;
65145;SDS011;51730;56.950;24.126;2022-11-15T04:10:24;24.45;;;9.90;;
65145;SDS011;51730;56.950;24.126;2022-11-15T04:12:51;27.73;;;10.77;;
65145;SDS011;51730;56.950;24.126;2022-11-15T04:15:19;28.30;;;11.88;;
65145;SDS011;51730;56.950;24.126;2022-11-15T04:17:48;21.70;;;9.50;;
65145;SDS011;51730;56.950;24.126;2022-11-15T04:20:18;21.23;;;9.82;;
65145;SDS011;51730;56.950;24.126;2022-11-15T04:23:05;26.27;;;12.20;;
65145;SDS011;51730;56.950;24.126;2022-11-15T04:25:52;26.30;;;11.70;;
65145;SDS011;51730;56.950;24.126;2022-11-15T04:28:21;32.58;;;13.00;;
65145;SDS011;51730;56.950;24.126;2022-11-15T04:30:48;26.85;;;12.57;;
65145;SDS011;51730;56.950;24.126;2022-11-15T04:33:15;25.27;;;11.07;;
65145;SDS011;51730;56.950;24.126;2022-11-15T04:35:42;27.02;;;12.27;;
65145;SDS011;51730;56.950;24.126;2022-11-15T04:38:09;27.92;;;11.88;;
65145;SDS011;51730;56.950;24.126;2022-11-15T04:40:37;26.88;;;11.50;;
65145;SDS011;51730;56.950;24.126;2022-11-15T04:43:04;23.98;;;11.15;;
65145;SDS011;51730;56.950;24.126;2022-11-15T04:45:31;27.63;;;12.27;;
65145;SDS011;51730;56.950;24.126;2022-11-15T04:47:58;26.88;;;12.77;;
65145;SDS011;51730;56.950;24.126;2022-11-15T04:50:25;24.05;;;11.75;;
65145;SDS011;51730;56.950;24.126;2022-11-15T04:52:52;27.63;;;12.32;;
65145;SDS011;51730;56.950;24.126;2022-11-15T04:55:20;29.40;;;13.43;;
65145;SDS011;51730;56.950;24.126;2022-11-15T04:57:47;26.90;;;12.20;;
65145;SDS011;51730;56.950;24.126;2022-11-15T05:00:22;26.50;;;11.93;;
65145;SDS011;51730;56.950;24.126;2022-11-15T05:02:50;22.50;;;11.98;;
65145;SDS011;51730;56.950;24.126;2022-11-15T05:05:35;25.73;;;12.25;;
65145;SDS011;51730;56.950;24.126;2022-11-15T05:08:03;22.85;;;11.55;;
65145;SDS011;51730;56.950;24.126;2022-11-15T05:10:30;25.67;;;11.00;;
65145;SDS011;51730;56.950;24.126;2022-11-15T05:12:57;26.33;;;12.55;;
65145;SDS011;51730;56.950;24.126;2022-11-15T05:15:24;23.55;;;11.88;;
65145;SDS011;51730;56.950;24.126;2022-11-15T05:17:51;23.98;;;12.57;;
65145;SDS011;51730;56.950;24.126;2022-11-15T05:20:23;24.15;;;12.02;;
65145;SDS011;51730;56.950;24.126;2022-11-15T05:22:49;25.73;;;11.73;;
65145;SDS011;51730;56.950;24.126;2022-11-15T05:25:16;26.95;;;12.65;;
65145;SDS011;51730;56.950;24.126;2022-11-15T05:27:44;25.65;;;11.57;;
65145;SDS011;51730;56.950;24.126;2022-11-15T05:30:11;31.25;;;12.68;;
65145;SDS011;51730;56.950;24.126;2022-11-15T05:32:38;29.88;;;12.75;;
65145;SDS011;51730;56.950;24.126;2022-11-15T05:35:05;27.85;;;12.75;;
65145;SDS011;51730;56.950;24.126;2022-11-15T05:37:34;24.77;;;12.27;;
65145;SDS011;51730;56.950;24.126;2022-11-15T05:40:01;24.27;;;11.93;;
65145;SDS011;51730;56.950;24.126;2022-11-15T05:42:28;29.95;;;13.48;;
65145;SDS011;51730;56.950;24.126;2022-11-15T05:44:56;28.25;;;12.65;;
65145;SDS011;51730;56.950;24.126;2022-11-15T05:47:25;30.38;;;15.40;;
65145;SDS011;51730;56.950;24.126;2022-11-15T05:49:55;28.70;;;13.90;;
65145;SDS011;51730;56.950;24.126;2022-11-15T05:52:25;26.95;;;12.15;;
65145;SDS011;51730;56.950;24.126;2022-11-15T05:54:55;30.83;;;13.63;;
65145;SDS011;51730;56.950;24.126;2022-11-15T05:57:24;31.67;;;13.90;;
65145;SDS011;51730;56.950;24.126;2022-11-15T05:59:51;26.50;;;11.95;;
65145;SDS011;51730;56.950;24.126;2022-11-15T06:02:18;26.42;;;11.88;;
65145;SDS011;51730;56.950;24.126;2022-11-15T06:04:45;26.38;;;12.63;;
65145;SDS011;51730;56.950;24.126;2022-11-15T06:07:12;29.38;;;13.50;;
65145;SDS011;51730;56.950;24.126;2022-11-15T06:09:39;29.77;;;13.30;;
65145;SDS011;51730;56.950;24.126;2022-11-15T06:12:06;26.65;;;12.45;;
65145;SDS011;51730;56.950;24.126;2022-11-15T06:14:33;32.33;;;14.23;;
65145;SDS011;51730;56.950;24.126;2022-11-15T06:16:59;28.58;;;13.98;;
65145;SDS011;51730;56.950;24.126;2022-11-15T06:19:26;29.38;;;13.43;;
65145;SDS011;51730;56.950;24.126;2022-11-15T06:21:53;30.17;;;13.27;;
65145;SDS011;51730;56.950;24.126;2022-11-15T06:24:20;29.83;;;13.02;;
65145;SDS011;51730;56.950;24.126;2022-11-15T06:26:47;28.00;;;12.80;;
65145;SDS011;51730;56.950;24.126;2022-11-15T06:29:13;25.98;;;11.98;;
65145;SDS011;51730;56.950;24.126;2022-11-15T06:31:40;33.10;;;14.60;;
65145;SDS011;51730;56.950;24.126;2022-11-15T06:34:07;25.13;;;11.90;;
65145;SDS011;51730;56.950;24.126;2022-11-15T06:36:35;27.42;;;12.70;;
65145;SDS011;51730;56.950;24.126;2022-11-15T06:39:03;30.92;;;12.88;;
65145;SDS011;51730;56.950;24.126;2022-11-15T06:41:33;26.63;;;11.77;;
65145;SDS011;51730;56.950;24.126;2022-11-15T06:44:01;25.45;;;12.57;;
65145;SDS011;51730;56.950;24.126;2022-11-15T06:46:29;25.40;;;11.65;;
65145;SDS011;51730;56.950;24.126;2022-11-15T06:48:55;24.02;;;11.15;;
65145;SDS011;51730;56.950;24.126;2022-11-15T06:51:22;26.83;;;12.00;;
65145;SDS011;51730;56.950;24.126;2022-11-15T06:53:49;28.48;;;12.50;;
65145;SDS011;51730;56.950;24.126;2022-11-15T06:56:16;30.20;;;12.30;;
65145;SDS011;51730;56.950;24.126;2022-11-15T06:58:43;29.23;;;12.50;;
65145;SDS011;51730;56.950;24.126;2022-11-15T07:01:11;28.23;;;13.05;;
65145;SDS011;51730;56.950;24.126;2022-11-15T07:03:39;33.55;;;13.57;;
65145;SDS011;51730;56.950;24.126;2022-11-15T07:06:07;34.15;;;13.60;;
65145;SDS011;51730;56.950;24.126;2022-11-15T07:08:35;34.38;;;15.23;;
65145;SDS011;51730;56.950;24.126;2022-11-15T07:11:03;29.55;;;12.93;;
65145;SDS011;51730;56.950;24.126;2022-11-15T07:13:33;29.13;;;13.45;;
65145;SDS011;51730;56.950;24.126;2022-11-15T07:16:02;29.13;;;13.75;;
65145;SDS011;51730;56.950;24.126;2022-11-15T07:18:31;44.65;;;17.38;;
65145;SDS011;51730;56.950;24.126;2022-11-15T07:21:04;34.20;;;16.45;;
65145;SDS011;51730;56.950;24.126;2022-11-15T07:23:35;27.73;;;13.15;;
65145;SDS011;51730;56.950;24.126;2022-11-15T07:26:06;35.45;;;16.00;;
65145;SDS011;51730;56.950;24.126;2022-11-15T07:28:34;28.58;;;13.25;;
65145;SDS011;51730;56.950;24.126;2022-11-15T07:31:06;26.17;;;12.25;;
65145;SDS011;51730;56.950;24.126;2022-11-15T07:33:34;29.35;;;12.95;;
65145;SDS011;51730;56.950;24.126;2022-11-15T07:36:02;26.83;;;12.82;;
65145;SDS011;51730;56.950;24.126;2022-11-15T07:38:31;33.50;;;12.15;;
65145;SDS011;51730;56.950;24.126;2022-11-15T07:41:05;27.65;;;12.75;;
65145;SDS011;51730;56.950;24.126;2022-11-15T07:43:33;25.13;;;11.40;;
65145;SDS011;51730;56.950;24.126;2022-11-15T07:46:04;26.90;;;12.82;;
65145;SDS011;51730;56.950;24.126;2022-11-15T07:48:36;27.58;;;12.50;;
65145;SDS011;51730;56.950;24.126;2022-11-15T07:51:13;27.15;;;12.55;;
65145;SDS011;51730;56.950;24.126;2022-11-15T07:53:41;27.00;;;12.57;;
65145;SDS011;51730;56.950;24.126;2022-11-15T07:56:09;31.77;;;12.63;;
65145;SDS011;51730;56.950;24.126;2022-11-15T07:58:37;31.50;;;13.00;;
65145;SDS011;51730;56.950;24.126;2022-11-15T08:01:05;24.83;;;11.88;;
65145;SDS011;51730;56.950;24.126;2022-11-15T08:03:33;25.58;;;12.00;;
65145;SDS011;51730;56.950;24.126;2022-11-15T08:06:01;28.05;;;11.48;;
65145;SDS011;51730;56.950;24.126;2022-11-15T08:08:28;26.73;;;11.95;;
65145;SDS011;51730;56.950;24.126;2022-11-15T08:10:57;29.52;;;13.35;;
65145;SDS011;51730;56.950;24.126;2022-11-15T08:13:24;28.20;;;13.88;;
65145;SDS011;51730;56.950;24.126;2022-11-15T08:15:51;30.83;;;14.57;;
65145;SDS011;51730;56.950;24.126;2022-11-15T08:18:23;25.98;;;12.25;;
65145;SDS011;51730;56.950;24.126;2022-11-15T08:20:50;24.45;;;12.05;;
65145;SDS011;51730;56.950;24.126;2022-11-15T08:23:17;28.35;;;13.07;;
65145;SDS011;51730;56.950;24.126;2022-11-15T08:25:44;30.50;;;13.50;;
65145;SDS011;51730;56.950;24.126;2022-11-15T08:28:11;27.05;;;12.90;;
65145;SDS011;51730;56.950;24.126;2022-11-15T08:30:39;26.98;;;13.38;;
65145;SDS011;51730;56.950;24.126;2022-11-15T08:33:12;26.73;;;13.57;;
65145;SDS011;51730;56.950;24.126;2022-11-15T08:38:08;29.15;;;13.98;;
65145;SDS011;51730;56.950;24.126;2022-11-15T08:40:35;44.08;;;19.73;;
65145;SDS011;51730;56.950;24.126;2022-11-15T08:43:03;31.65;;;14.85;;
65145;SDS011;51730;56.950;24.126;2022-11-15T08:45:30;29.00;;;13.55;;
65145;SDS011;51730;56.950;24.126;2022-11-15T08:47:57;22.05;;;10.80;;
65145;SDS011;51730;56.950;24.126;2022-11-15T08:50:26;21.67;;;11.18;;
65145;SDS011;51730;56.950;24.126;2022-11-15T08:52:53;23.83;;;11.30;;
65145;SDS011;51730;56.950;24.126;2022-11-15T08:55:20;26.58;;;12.68;;
65145;SDS011;51730;56.950;24.126;2022-11-15T08:57:50;23.50;;;11.02;;
65145;SDS011;51730;56.950;24.126;2022-11-15T09:00:17;24.83;;;12.45;;
65145;SDS011;51730;56.950;24.126;2022-11-15T09:02:46;24.40;;;12.13;;
65145;SDS011;51730;56.950;24.126;2022-11-15T09:05:13;23.42;;;11.30;;
65145;SDS011;51730;56.950;24.126;2022-11-15T09:07:41;25.23;;;12.07;;
65145;SDS011;51730;56.950;24.126;2022-11-15T09:10:08;23.67;;;11.20;;
65145;SDS011;51730;56.950;24.126;2022-11-15T09:12:35;22.55;;;11.30;;
65145;SDS011;51730;56.950;24.126;2022-11-15T09:15:03;23.70;;;12.00;;
65145;SDS011;51730;56.950;24.126;2022-11-15T09:17:31;24.08;;;11.65;;
65145;SDS011;51730;56.950;24.126;2022-11-15T09:19:58;22.15;;;10.43;;
65145;SDS011;51730;56.950;24.126;2022-11-15T09:22:25;25.42;;;13.00;;
65145;SDS011;51730;56.950;24.126;2022-11-15T09:24:53;26.70;;;11.30;;
65145;SDS011;51730;56.950;24.126;2022-11-15T09:27:20;26.23;;;12.45;;
65145;SDS011;51730;56.950;24.126;2022-11-15T09:29:46;23.65;;;11.77;;
65145;SDS011;51730;56.950;24.126;2022-11-15T09:32:13;24.70;;;11.60;;
65145;SDS011;51730;56.950;24.126;2022-11-15T09:34:40;25.13;;;11.38;;
65145;SDS011;51730;56.950;24.126;2022-11-15T09:37:07;25.77;;;12.50;;
65145;SDS011;51730;56.950;24.126;2022-11-15T09:39:34;26.88;;;12.65;;
65145;SDS011;51730;56.950;24.126;2022-11-15T09:42:07;21.63;;;11.68;;
65145;SDS011;51730;56.950;24.126;2022-11-15T09:49:42;27.23;;;13.57;;
65145;SDS011;51730;56.950;24.126;2022-11-15T09:52:10;28.85;;;15.43;;
65145;SDS011;51730;56.950;24.126;2022-11-15T09:54:38;24.58;;;11.32;;
65145;SDS011;51730;56.950;24.126;2022-11-15T09:57:24;28.30;;;12.07;;
65145;SDS011;51730;56.950;24.126;2022-11-15T10:00:21;28.30;;;12.85;;
65145;SDS011;51730;56.950;24.126;2022-11-15T10:03:14;27.00;;;10.80;;
65145;SDS011;51730;56.950;24.126;2022-11-15T10:05:54;19.42;;;10.15;;
65145;SDS011;51730;56.950;24.126;2022-11-15T10:11:11;22.13;;;9.55;;
65145;SDS011;51730;56.950;24.126;2022-11-15T10:22:43;14.13;;;7.45;;
65145;SDS011;51730;56.950;24.126;2022-11-15T10:25:39;11.52;;;6.32;;
65145;SDS011;51730;56.950;24.126;2022-11-15T10:30:53;21.80;;;11.50;;
65145;SDS011;51730;56.950;24.126;2022-11-15T10:33:32;13.50;;;8.40;;
65145;SDS011;51730;56.950;24.126;2022-11-15T10:38:57;8.68;;;5.50;;
65145;SDS011;51730;56.950;24.126;2022-11-15T10:46:34;8.05;;;5.40;;
65145;SDS011;51730;56.950;24.126;2022-11-15T10:51:47;10.25;;;5.10;;
65145;SDS011;51730;56.950;24.126;2022-11-15T10:54:21;9.30;;;3.42;;
65145;SDS011;51730;56.950;24.126;2022-11-15T10:56:54;6.38;;;3.55;;
65145;SDS011;51730;56.950;24.126;2022-11-15T10:59:24;4.20;;;2.65;;
65145;SDS011;51730;56.950;24.126;2022-11-15T11:01:54;6.60;;;2.55;;
65145;SDS011;51730;56.950;24.126;2022-11-15T11:04:21;3.28;;;2.08;;
65145;SDS011;51730;56.950;24.126;2022-11-15T11:09:36;10.02;;;2.20;;
65145;SDS011;51730;56.950;24.126;2022-11-15T11:12:05;6.82;;;2.80;;
65145;SDS011;51730;56.950;24.126;2022-11-15T11:14:38;4.03;;;2.40;;
65145;SDS011;51730;56.950;24.126;2022-11-15T11:28:51;3.88;;;2.03;;
65145;SDS011;51730;56.950;24.126;2022-11-15T11:31:24;3.65;;;2.40;;
65145;SDS011;51730;56.950;24.126;2022-11-15T11:40:33;2.72;;;1.17;;
65145;SDS011;51730;56.950;24.126;2022-11-15T11:43:00;3.35;;;1.60;;
65145;SDS011;51730;56.950;24.126;2022-11-15T11:49:02;5.38;;;1.30;;
65145;SDS011;51730;56.950;24.126;2022-11-15T11:51:38;4.57;;;1.52;;
65145;SDS011;51730;56.950;24.126;2022-11-15T11:54:12;3.35;;;1.42;;
65145;SDS011;51730;56.950;24.126;2022-11-15T11:57:00;2.00;;;1.10;;
65145;SDS011;51730;56.950;24.126;2022-11-15T12:05:13;1.10;;;0.95;;
65145;SDS011;51730;56.950;24.126;2022-11-15T12:07:46;2.97;;;1.40;;
65145;SDS011;51730;56.950;24.126;2022-11-15T12:10:24;2.27;;;1.43;;
65145;SDS011;51730;56.950;24.126;2022-11-15T12:12:58;4.55;;;1.10;;
65145;SDS011;51730;56.950;24.126;2022-11-15T12:15:48;2.13;;;1.05;;
65145;SDS011;51730;56.950;24.126;2022-11-15T12:18:22;3.95;;;1.20;;
65145;SDS011;51730;56.950;24.126;2022-11-15T12:20:54;2.80;;;1.40;;
65145;SDS011;51730;56.950;24.126;2022-11-15T12:23:27;1.67;;;0.90;;
65145;SDS011;51730;56.950;24.126;2022-11-15T12:26:00;2.00;;;1.00;;
65145;SDS011;51730;56.950;24.126;2022-11-15T12:36:49;3.42;;;1.20;;
65145;SDS011;51730;56.950;24.126;2022-11-15T12:39:17;1.42;;;1.05;;
65145;SDS011;51730;56.950;24.126;2022-11-15T12:59:47;2.63;;;1.08;;
65145;SDS011;51730;56.950;24.126;2022-11-15T13:02:31;2.90;;;1.83;;
65145;SDS011;51730;56.950;24.126;2022-11-15T13:33:17;4.07;;;1.10;;
65145;SDS011;51730;56.950;24.126;2022-11-15T13:35:46;2.97;;;1.25;;
65145;SDS011;51730;56.950;24.126;2022-11-15T13:38:36;2.22;;;1.30;;
65145;SDS011;51730;56.950;24.126;2022-11-15T13:43:43;2.63;;;1.40;;
65145;SDS011;51730;56.950;24.126;2022-11-15T13:48:42;2.42;;;1.73;;
65145;SDS011;51730;56.950;24.126;2022-11-15T13:51:33;3.28;;;1.70;;
65145;SDS011;51730;56.950;24.126;2022-11-15T13:54:16;6.60;;;1.65;;
65145;SDS011;51730;56.950;24.126;2022-11-15T13:59:51;4.72;;;1.42;;
65145;SDS011;51730;56.950;24.126;2022-11-15T14:02:25;1.65;;;1.30;;
65145;SDS011;51730;56.950;24.126;2022-11-15T14:04:57;2.45;;;1.75;;
65145;SDS011;51730;56.950;24.126;2022-11-15T14:07:25;1.88;;;1.10;;
65145;SDS011;51730;56.950;24.126;2022-11-15T14:09:54;2.63;;;1.60;;
65145;SDS011;51730;56.950;24.126;2022-11-15T14:12:23;3.25;;;1.83;;
65145;SDS011;51730;56.950;24.126;2022-11-15T14:14:50;4.45;;;1.70;;
65145;SDS011;51730;56.950;24.126;2022-11-15T14:19:57;3.25;;;1.73;;
65145;SDS011;51730;56.950;24.126;2022-11-15T14:22:25;15.45;;;6.13;;
65145;SDS011;51730;56.950;24.126;2022-11-15T14:25:37;16.02;;;7.22;;
65145;SDS011;51730;56.950;24.126;2022-11-15T14:28:49;6.20;;;3.00;;
65145;SDS011;51730;56.950;24.126;2022-11-15T14:30:45;5.13;;;2.35;;
65145;SDS011;51730;56.950;24.126;2022-11-15T14:35:52;6.93;;;2.50;;
65145;SDS011;51730;56.950;24.126;2022-11-15T14:38:19;4.05;;;1.50;;
65145;SDS011;51730;56.950;24.126;2022-11-15T14:40:46;7.75;;;1.27;;
65145;SDS011;51730;56.950;24.126;2022-11-15T14:43:13;4.75;;;1.40;;
65145;SDS011;51730;56.950;24.126;2022-11-15T14:45:40;2.80;;;1.13;;
65145;SDS011;51730;56.950;24.126;2022-11-15T14:48:07;2.58;;;0.98;;
65145;SDS011;51730;56.950;24.126;2022-11-15T14:50:34;4.78;;;1.50;;
65145;SDS011;51730;56.950;24.126;2022-11-15T14:53:02;3.03;;;1.30;;
65145;SDS011;51730;56.950;24.126;2022-11-15T14:55:31;6.25;;;2.15;;
65145;SDS011;51730;56.950;24.126;2022-11-15T14:58:01;1.95;;;1.20;;
65145;SDS011;51730;56.950;24.126;2022-11-15T15:00:30;3.08;;;1.20;;
65145;SDS011;51730;56.950;24.126;2022-11-15T15:03:00;2.58;;;1.73;;
65145;SDS011;51730;56.950;24.126;2022-11-15T15:07:58;2.00;;;1.35;;
65145;SDS011;51730;56.950;24.126;2022-11-15T15:10:29;3.35;;;1.60;;
65145;SDS011;51730;56.950;24.126;2022-11-15T15:13:15;4.82;;;1.65;;
65145;SDS011;51730;56.950;24.126;2022-11-15T15:15:46;2.95;;;1.42;;
65145;SDS011;51730;56.950;24.126;2022-11-15T15:18:14;4.65;;;1.80;;
65145;SDS011;51730;56.950;24.126;2022-11-15T15:20:41;4.65;;;2.58;;
65145;SDS011;51730;56.950;24.126;2022-11-15T15:23:20;4.35;;;1.98;;
65145;SDS011;51730;56.950;24.126;2022-11-15T15:25:49;1.65;;;1.35;;
65145;SDS011;51730;56.950;24.126;2022-11-15T15:28:15;2.55;;;1.55;;
65145;SDS011;51730;56.950;24.126;2022-11-15T15:30:42;2.25;;;1.45;;
65145;SDS011;51730;56.950;24.126;2022-11-15T15:33:09;3.38;;;1.75;;
65145;SDS011;51730;56.950;24.126;2022-11-15T15:35:36;1.30;;;1.10;;
65145;SDS011;51730;56.950;24.126;2022-11-15T15:38:03;2.33;;;1.33;;
65145;SDS011;51730;56.950;24.126;2022-11-15T15:40:32;2.58;;;1.92;;
65145;SDS011;51730;56.950;24.126;2022-11-15T15:42:59;1.58;;;1.05;;
65145;SDS011;51730;56.950;24.126;2022-11-15T15:45:26;2.35;;;1.48;;
65145;SDS011;51730;56.950;24.126;2022-11-15T15:47:54;2.08;;;1.33;;
65145;SDS011;51730;56.950;24.126;2022-11-15T15:52:55;2.90;;;1.35;;
65145;SDS011;51730;56.950;24.126;2022-11-15T15:55:23;5.10;;;1.83;;
65145;SDS011;51730;56.950;24.126;2022-11-15T15:57:51;2.55;;;1.50;;
65145;SDS011;51730;56.950;24.126;2022-11-15T16:00:18;5.97;;;3.00;;
65145;SDS011;51730;56.950;24.126;2022-11-15T16:02:46;4.05;;;1.75;;
65145;SDS011;51730;56.950;24.126;2022-11-15T16:05:13;3.35;;;2.00;;
65145;SDS011;51730;56.950;24.126;2022-11-15T16:07:40;4.28;;;2.05;;
65145;SDS011;51730;56.950;24.126;2022-11-15T16:10:15;4.47;;;2.30;;
65145;SDS011;51730;56.950;24.126;2022-11-15T16:12:46;2.38;;;1.88;;
65145;SDS011;51730;56.950;24.126;2022-11-15T16:15:14;5.10;;;2.17;;
65145;SDS011;51730;56.950;24.126;2022-11-15T16:17:43;4.07;;;1.92;;
65145;SDS011;51730;56.950;24.126;2022-11-15T16:20:22;4.72;;;2.38;;
65145;SDS011;51730;56.950;24.126;2022-11-15T16:22:49;2.25;;;1.60;;
65145;SDS011;51730;56.950;24.126;2022-11-15T16:25:16;3.53;;;2.20;;
65145;SDS011;51730;56.950;24.126;2022-11-15T16:27:42;2.80;;;1.90;;
65145;SDS011;51730;56.950;24.126;2022-11-15T16:30:14;3.75;;;2.55;;
65145;SDS011;51730;56.950;24.126;2022-11-15T16:32:42;3.40;;;2.33;;
65145;SDS011;51730;56.950;24.126;2022-11-15T16:35:15;2.90;;;2.13;;
65145;SDS011;51730;56.950;24.126;2022-11-15T16:37:43;2.05;;;1.80;;
65145;SDS011;51730;56.950;24.126;2022-11-15T16:42:59;4.35;;;2.50;;
65145;SDS011;51730;56.950;24.126;2022-11-15T16:45:28;4.15;;;2.72;;
65145;SDS011;51730;56.950;24.126;2022-11-15T16:47:55;2.80;;;2.03;;
65145;SDS011;51730;56.950;24.126;2022-11-15T16:50:24;2.35;;;2.05;;
65145;SDS011;51730;56.950;24.126;2022-11-15T16:52:56;4.05;;;2.72;;
65145;SDS011;51730;56.950;24.126;2022-11-15T16:55:27;4.32;;;2.67;;
65145;SDS011;51730;56.950;24.126;2022-11-15T16:57:55;4.32;;;1.58;;
65145;SDS011;51730;56.950;24.126;2022-11-15T17:00:23;2.53;;;2.00;;
65145;SDS011;51730;56.950;24.126;2022-11-15T17:02:51;2.58;;;1.88;;
65145;SDS011;51730;56.950;24.126;2022-11-15T17:05:20;4.20;;;2.97;;
65145;SDS011;51730;56.950;24.126;2022-11-15T17:07:49;5.28;;;2.50;;
65145;SDS011;51730;56.950;24.126;2022-11-15T17:10:20;3.05;;;2.20;;
65145;SDS011;51730;56.950;24.126;2022-11-15T17:12:50;3.83;;;2.50;;
65145;SDS011;51730;56.950;24.126;2022-11-15T17:15:18;3.25;;;2.40;;
65145;SDS011;51730;56.950;24.126;2022-11-15T17:17:49;4.15;;;2.40;;
65145;SDS011;51730;56.950;24.126;2022-11-15T17:20:21;2.20;;;1.67;;
65145;SDS011;51730;56.950;24.126;2022-11-15T17:22:49;3.42;;;2.25;;
65145;SDS011;51730;56.950;24.126;2022-11-15T17:25:16;2.72;;;1.83;;
65145;SDS011;51730;56.950;24.126;2022-11-15T17:27:43;2.97;;;2.00;;
65145;SDS011;51730;56.950;24.126;2022-11-15T17:30:13;3.40;;;2.15;;
65145;SDS011;51730;56.950;24.126;2022-11-15T17:32:41;4.82;;;2.58;;
65145;SDS011;51730;56.950;24.126;2022-11-15T17:35:09;2.88;;;2.15;;
65145;SDS011;51730;56.950;24.126;2022-11-15T17:37:41;3.05;;;2.30;;